createdAt,value
2023-01-24T00:01:32.501Z,104231.03
2023-01-24T00:03:59.152Z,104240.78
2023-01-24T00:06:25.972Z,104237.28
2023-01-24T00:08:53.948Z,104227.66
2023-01-24T00:11:21.471Z,104234.66
2023-01-24T00:13:48.086Z,104225.78
2023-01-24T00:16:22.065Z,104213.56
2023-01-24T00:18:49.553Z,104220.47
2023-01-24T00:21:21.542Z,104221.31
2023-01-24T00:23:50.611Z,104221.41
2023-01-24T00:26:18.162Z,104217.94
2023-01-24T00:28:45.659Z,104218.91
2023-01-24T00:31:12.225Z,104215.38
2023-01-24T00:33:38.813Z,104212.72
2023-01-24T00:36:06.363Z,104206.56
2023-01-24T00:38:33.007Z,104209.13
2023-01-24T00:40:59.807Z,104202.94
2023-01-24T00:43:29.086Z,104205.69
2023-01-24T00:45:56.241Z,104189.09
2023-01-24T00:48:23.043Z,104198.66
2023-01-24T00:50:49.773Z,104193.44
2023-01-24T00:53:16.442Z,104187.28
2023-01-24T00:55:45.105Z,104186.38
2023-01-24T00:58:12.153Z,104180.34
2023-01-24T01:00:40.427Z,104189.09
2023-01-24T01:03:10.750Z,104187.34
2023-01-24T01:05:37.276Z,104189.94
2023-01-24T01:08:03.857Z,104186.44
2023-01-24T01:10:30.513Z,104190.75
2023-01-24T01:12:58.018Z,104187.22
2023-01-24T01:15:24.761Z,104176.63
2023-01-24T01:17:51.283Z,104199.66
2023-01-24T01:20:19.144Z,104184.75
2023-01-24T01:22:45.651Z,104187.34
2023-01-24T01:25:12.236Z,104189.19
2023-01-24T01:27:39.211Z,104190.03
2023-01-24T01:30:06.351Z,104192.53
2023-01-24T01:32:32.989Z,104185.53
2023-01-24T01:34:59.520Z,104197.84
2023-01-24T01:37:28.782Z,104196.91
2023-01-24T01:39:55.341Z,104198.56
2023-01-24T01:42:22.012Z,104203.03
2023-01-24T01:44:51.492Z,104203.81
2023-01-24T01:47:34.983Z,104203.91
2023-01-24T01:50:06.833Z,104203.97
2023-01-24T01:52:38.117Z,104201.31
2023-01-24T01:55:12.843Z,104199.53
2023-01-24T01:57:41.522Z,104204.75
2023-01-24T02:00:16.300Z,104182.75
2023-01-24T06:44:14.701Z,104172.38
2023-01-24T06:46:41.546Z,104234.00
2023-01-24T06:53:01.598Z,104198.84
2023-01-24T06:55:28.676Z,104165.34
2023-01-24T06:57:59.726Z,104194.38
2023-01-24T07:00:26.563Z,104244.59
2023-01-24T07:03:03.897Z,104241.13
2023-01-24T07:05:32.228Z,104167.72
2023-01-24T07:07:59.419Z,104187.94
2023-01-24T07:10:26.433Z,104160.56
2023-01-24T07:12:54.402Z,104173.72
2023-01-24T07:15:21.294Z,104191.50
2023-01-24T07:17:49.855Z,104193.16
2023-01-24T07:20:17.969Z,104206.25
2023-01-24T07:22:45.402Z,104202.00
2023-01-24T07:25:28.492Z,104184.06
2023-01-24T07:27:55.566Z,104196.34
2023-01-24T07:30:22.481Z,104208.91
2023-01-24T07:32:49.199Z,104204.50
2023-01-24T07:35:16.747Z,104190.06
2023-01-24T07:37:45.212Z,104179.69
2023-01-24T07:40:12.661Z,104169.03
2023-01-24T07:42:39.462Z,104215.00
2023-01-24T07:45:07.045Z,104194.56
2023-01-24T07:47:35.018Z,104244.69
2023-01-24T07:50:01.829Z,104191.88
2023-01-24T07:52:28.644Z,104193.78
2023-01-24T07:54:55.629Z,104175.25
2023-01-24T07:57:23.244Z,104191.75
2023-01-24T07:59:50.327Z,104242.09
2023-01-24T08:02:17.252Z,104218.25
2023-01-24T08:04:44.630Z,104243.06
2023-01-24T08:07:17.970Z,104220.03
2023-01-24T08:09:46.228Z,104218.00
2023-01-24T08:12:13.382Z,104199.56
2023-01-24T08:14:40.682Z,104270.06
2023-01-24T08:17:07.906Z,104207.97
2023-01-24T08:19:54.782Z,104194.94
2023-01-24T08:22:21.760Z,104204.44
2023-01-24T08:24:48.796Z,104211.41
2023-01-24T08:27:15.569Z,104227.50
2023-01-24T08:29:42.382Z,104257.66
2023-01-24T08:32:09.534Z,104251.44
2023-01-24T08:34:36.573Z,104211.47
2023-01-24T08:37:03.242Z,104235.22
2023-01-24T08:39:30.980Z,104283.03
2023-01-24T08:41:57.777Z,104257.41
2023-01-24T08:44:24.569Z,104236.94
2023-01-24T08:46:52.984Z,104280.09
2023-01-24T08:49:21.111Z,104251.78
2023-01-24T08:51:48.791Z,104275.75
2023-01-24T08:54:16.289Z,104282.72
2023-01-24T08:56:43.032Z,104243.63
2023-01-24T08:59:10.002Z,104262.13
2023-01-24T09:01:36.895Z,104292.28
2023-01-24T09:04:05.885Z,104296.81
2023-01-24T09:06:32.834Z,104287.13
2023-01-24T09:09:00.604Z,104288.06
2023-01-24T09:11:27.837Z,104268.56
2023-01-24T09:13:55.145Z,104305.75
2023-01-24T09:16:22.054Z,104301.47
2023-01-24T09:18:50.533Z,104266.13
2023-01-24T09:21:17.285Z,104297.91
2023-01-24T09:23:44.317Z,104284.66
2023-01-24T09:26:11.328Z,104280.13
2023-01-24T09:28:41.266Z,104274.75
2023-01-24T09:31:10.164Z,104274.44
2023-01-24T09:33:39.334Z,104280.75
2023-01-24T09:36:10.259Z,104254.09
2023-01-24T09:38:37.377Z,104292.84
2023-01-24T09:41:20.337Z,104304.69
2023-01-24T09:43:53.490Z,104283.38
2023-01-24T09:46:55.705Z,104340.84
2023-01-24T09:49:46.138Z,104311.53
2023-01-24T09:52:21.786Z,104293.91
2023-01-24T09:54:57.399Z,104265.63
2023-01-24T09:57:33.458Z,104262.13
2023-01-24T10:00:14.008Z,104303.50
2023-01-24T10:02:40.897Z,104354.00
2023-01-24T10:05:14.552Z,104353.00
2023-01-24T10:07:56.257Z,104257.59
2023-01-24T10:10:46.295Z,104350.41
2023-01-24T10:13:13.283Z,104330.03
2023-01-24T10:15:49.066Z,104339.97
2023-01-24T10:18:23.297Z,104345.28
2023-01-24T10:21:09.185Z,104274.34
2023-01-24T10:23:40.960Z,104298.38
2023-01-24T10:26:20.073Z,104309.09
2023-01-24T10:28:56.582Z,104277.00
2023-01-24T10:31:36.023Z,104279.69
2023-01-24T10:34:35.505Z,104281.66
2023-01-24T10:37:11.773Z,104273.66
2023-01-24T10:39:39.100Z,104289.59
2023-01-24T10:42:29.990Z,104285.44
2023-01-24T10:45:02.103Z,104331.34
2023-01-24T10:48:00.846Z,104258.00
2023-01-24T10:50:35.569Z,104274.75
2023-01-24T10:53:29.402Z,104304.03
2023-01-24T10:56:03.905Z,104233.34
2023-01-24T10:58:39.437Z,104252.66
2023-01-24T11:01:21.521Z,104300.41
2023-01-24T11:03:50.773Z,104286.53
2023-01-24T11:06:37.562Z,104302.63
2023-01-24T11:09:16.577Z,104241.75
2023-01-24T11:11:50.999Z,104247.00
2023-01-24T11:14:21.945Z,104247.66
2023-01-24T11:16:52.377Z,104231.78
2023-01-24T11:19:43.286Z,104283.09
2023-01-24T11:22:22.729Z,104287.66
2023-01-24T11:24:55.360Z,104235.69
2023-01-24T11:27:23.088Z,104228.47
2023-01-24T11:30:08.794Z,104301.00
2023-01-24T11:32:44.709Z,104249.09
2023-01-24T11:35:25.948Z,104252.44
2023-01-24T11:38:26.728Z,104283.63
2023-01-24T11:41:03.521Z,104243.66
2023-01-24T11:43:58.354Z,104281.94
2023-01-24T11:46:35.831Z,104250.25
2023-01-24T11:49:14.504Z,104292.75
2023-01-24T11:52:05.252Z,104257.47
2023-01-24T11:54:59.184Z,104262.94
2023-01-24T11:57:41.389Z,104273.53
2023-01-24T12:00:22.437Z,104272.66
2023-01-24T12:03:28.138Z,104195.81
2023-01-24T12:06:18.551Z,104212.59
2023-01-24T12:09:18.234Z,104199.28
2023-01-24T12:11:52.963Z,104196.78
2023-01-24T12:14:30.929Z,104263.13
2023-01-24T12:17:15.249Z,104218.84
2023-01-24T12:20:24.717Z,104224.22
2023-01-24T12:23:03.612Z,104221.47
2023-01-24T12:25:40.050Z,104197.50
2023-01-24T12:28:12.736Z,104213.34
2023-01-24T12:30:46.289Z,104179.91
2023-01-24T12:33:33.466Z,104240.88
2023-01-24T12:36:22.404Z,104211.72
2023-01-24T12:38:56.602Z,104231.19
2023-01-24T12:41:39.978Z,104210.13
2023-01-24T12:44:43.873Z,104235.84
2023-01-24T12:47:33.985Z,104183.75
2023-01-24T12:50:21.564Z,104145.84
2023-01-24T12:53:02.087Z,104199.81
2023-01-24T12:55:38.811Z,104183.00
2023-01-24T12:58:35.854Z,104220.94
2023-01-24T13:01:18.173Z,104221.09
2023-01-24T13:04:21.246Z,104220.13
2023-01-24T13:07:28.146Z,104173.41
2023-01-24T13:10:14.287Z,104217.66
2023-01-24T13:12:43.833Z,104192.84
2023-01-24T13:15:25.518Z,104161.19
2023-01-24T13:18:19.951Z,104171.63
2023-01-24T13:21:08.307Z,104204.25
2023-01-24T13:24:04.058Z,104206.81
2023-01-24T13:27:01.390Z,104207.66
2023-01-24T13:29:41.869Z,104151.09
2023-01-24T13:32:18.974Z,104134.56
2023-01-24T13:34:55.261Z,104153.28
2023-01-24T13:37:26.974Z,104169.19
2023-01-24T13:40:12.970Z,104198.47
2023-01-24T13:42:40.901Z,104158.75
2023-01-24T13:45:40.832Z,104173.78
2023-01-24T13:48:44.228Z,104187.06
2023-01-24T13:51:23.230Z,104188.81
2023-01-24T13:54:17.011Z,104121.00
2023-01-24T13:57:21.497Z,104191.69
2023-01-24T14:00:22.724Z,104181.09
2023-01-24T14:02:49.687Z,104168.53
2023-01-24T14:05:43.209Z,104150.75
2023-01-24T14:08:09.960Z,104146.47
2023-01-24T14:10:39.842Z,104135.81
2023-01-24T14:13:45.419Z,104168.44
2023-01-24T14:16:25.290Z,104129.50
2023-01-24T14:18:59.991Z,104160.53
2023-01-24T14:21:45.577Z,104121.53
2023-01-24T14:24:55.500Z,104176.47
2023-01-24T14:27:32.411Z,104140.16
2023-01-24T14:30:09.845Z,104145.47
2023-01-24T14:32:45.925Z,104127.09
2023-01-24T14:35:21.462Z,104108.59
2023-01-24T14:37:50.354Z,104125.41
2023-01-24T14:40:24.693Z,104173.00
2023-01-24T14:42:58.753Z,104114.63
2023-01-24T14:45:28.442Z,104111.84
2023-01-24T14:47:57.261Z,104119.75
2023-01-24T14:50:34.448Z,104124.13
2023-01-24T14:53:02.479Z,104111.84
2023-01-24T14:55:43.496Z,104143.63
2023-01-24T14:58:21.225Z,104118.16
2023-01-24T15:00:50.427Z,104113.66
2023-01-24T15:03:26.307Z,104096.09
2023-01-24T15:05:57.125Z,104112.00
2023-01-24T15:08:26.305Z,104110.19
2023-01-24T15:11:06.673Z,104129.53
2023-01-24T15:13:44.614Z,104119.88
2023-01-24T15:16:24.561Z,104111.53
2023-01-24T15:18:55.595Z,104132.06
2023-01-24T15:21:35.983Z,104144.38
2023-01-24T15:24:04.305Z,104166.31
2023-01-24T15:26:34.179Z,104179.75
2023-01-24T15:29:39.365Z,104123.28
2023-01-24T15:32:35.033Z,104121.31
2023-01-24T15:35:26.892Z,104193.69
2023-01-24T15:38:17.092Z,104187.59
2023-01-24T15:40:59.712Z,104124.72
2023-01-24T15:43:47.271Z,104203.41
2023-01-24T15:46:37.365Z,104125.28
2023-01-24T15:49:39.752Z,104163.16
2023-01-24T15:52:10.369Z,104147.16
2023-01-24T15:54:43.083Z,104111.94
2023-01-24T15:57:27.747Z,104196.09
2023-01-24T16:00:02.331Z,104154.75
2023-01-24T16:02:29.539Z,104192.47
2023-01-24T16:04:57.322Z,104198.47
2023-01-24T16:07:24.505Z,104200.22
2023-01-24T16:09:54.375Z,104116.16
2023-01-24T16:12:22.596Z,104210.69
2023-01-24T16:15:07.007Z,104129.50
2023-01-24T16:17:34.929Z,104155.09
2023-01-24T16:20:02.269Z,104141.81
2023-01-24T16:22:30.081Z,104161.31
2023-01-24T16:24:56.877Z,104124.00
2023-01-24T16:27:23.587Z,104141.44
2023-01-24T16:29:51.499Z,104124.66
2023-01-24T16:32:24.307Z,104154.66
2023-01-24T16:34:51.301Z,104114.78
2023-01-24T16:37:21.945Z,104126.38
2023-01-24T16:39:49.556Z,104160.06
2023-01-24T16:42:19.047Z,104109.84
2023-01-24T16:45:01.645Z,104159.34
2023-01-24T16:47:29.107Z,104156.75
2023-01-24T16:49:57.210Z,104112.59
2023-01-24T16:52:26.096Z,104166.31
2023-01-24T16:54:53.153Z,104106.38
2023-01-24T16:57:20.608Z,104115.09
2023-01-24T16:59:47.774Z,104153.91
2023-01-24T17:02:15.449Z,104129.16
2023-01-24T17:04:42.404Z,104119.47
2023-01-24T17:07:09.239Z,104123.81
2023-01-24T17:09:36.176Z,104099.16
2023-01-24T17:12:13.685Z,104158.16
2023-01-24T17:14:41.795Z,104145.75
2023-01-24T17:17:09.304Z,104135.09
2023-01-24T17:19:38.884Z,104126.09
2023-01-24T17:22:06.946Z,104113.81
2023-01-24T17:24:34.636Z,104137.59
2023-01-24T17:27:01.751Z,104124.31
2023-01-24T17:29:29.136Z,104115.38
2023-01-24T17:31:57.389Z,104117.09
2023-01-24T17:34:24.761Z,104131.00
2023-01-24T17:36:52.652Z,104123.19
2023-01-24T17:39:20.018Z,104205.38
2023-01-24T17:41:46.972Z,104150.59
2023-01-24T17:44:17.469Z,104180.56
2023-01-24T17:46:45.068Z,104117.13
2023-01-24T17:49:12.126Z,104157.75
2023-01-24T17:51:39.069Z,104145.00
2023-01-24T17:54:11.416Z,104179.53
2023-01-24T17:56:39.207Z,104220.91
2023-01-24T17:59:06.094Z,104141.31
2023-01-24T18:01:33.141Z,104156.44
2023-01-24T18:04:01.886Z,104185.59
2023-01-24T18:06:28.707Z,104171.59
2023-01-24T18:08:55.248Z,104205.28
2023-01-24T18:11:22.287Z,104152.38
2023-01-24T18:13:49.259Z,104205.47
2023-01-24T18:16:19.205Z,104189.53
2023-01-24T18:18:48.983Z,104176.34
2023-01-24T18:21:20.041Z,104210.91
2023-01-24T18:23:51.638Z,104159.81
2023-01-24T18:26:18.392Z,104182.66
2023-01-24T18:28:45.179Z,104191.53
2023-01-24T18:31:12.802Z,104194.19
2023-01-24T18:33:40.404Z,104198.59
2023-01-24T18:36:12.976Z,104203.94
2023-01-24T18:38:40.961Z,104198.72
2023-01-24T18:41:07.752Z,104188.97
2023-01-24T18:43:37.408Z,104206.53
2023-01-24T18:46:05.976Z,104195.03
2023-01-24T18:48:34.780Z,104201.28
2023-01-24T18:51:09.380Z,104195.03
2023-01-24T18:53:36.011Z,104172.72
2023-01-24T18:56:05.286Z,104201.63
2023-01-24T18:58:34.039Z,104189.34
2023-01-24T19:01:08.287Z,104112.53
2023-01-24T19:03:35.352Z,104157.63
2023-01-24T19:06:02.467Z,104114.88
2023-01-24T19:08:29.425Z,104179.38
2023-01-24T19:10:56.584Z,104186.41
2023-01-24T19:13:23.456Z,104120.09
2023-01-24T19:15:51.953Z,104153.75
2023-01-24T19:18:20.427Z,104121.16
2023-01-24T19:20:47.506Z,104197.16
2023-01-24T19:23:14.624Z,104118.34
2023-01-24T19:26:02.387Z,104143.09
2023-01-24T19:29:00.410Z,104205.91
2023-01-24T19:31:28.752Z,104209.53
2023-01-24T19:33:55.991Z,104212.09
2023-01-24T19:36:24.312Z,104210.22
2023-01-24T19:38:56.913Z,104201.47
2023-01-24T19:41:25.717Z,104199.66
2023-01-24T19:44:18.538Z,104204.75
2023-01-24T19:46:39.584Z,104203.88
2023-01-24T19:49:06.134Z,104199.31
2023-01-24T19:51:32.853Z,104201.16
2023-01-24T19:53:59.301Z,104186.38
2023-01-24T19:56:25.907Z,104199.59
2023-01-24T19:58:55.364Z,104195.16
2023-01-24T20:01:22.209Z,104199.59
2023-01-24T20:03:49.211Z,104202.13
2023-01-24T20:06:20.958Z,104203.75
2023-01-24T20:08:53.025Z,104199.16
2023-01-24T20:11:21.455Z,104200.06
2023-01-24T20:13:48.147Z,104208.69
2023-01-24T20:16:26.516Z,104203.47
2023-01-24T20:18:58.227Z,104212.44
2023-01-24T20:21:27.636Z,104201.75
2023-01-24T20:23:56.166Z,104201.00
2023-01-24T20:26:22.944Z,104189.16
2023-01-24T20:28:50.050Z,104215.69
2023-01-24T20:31:16.974Z,104165.31
2023-01-24T20:33:43.989Z,104212.81
2023-01-24T20:36:14.170Z,104196.97
2023-01-24T20:38:41.510Z,104175.91
2023-01-24T20:41:13.147Z,104223.84
2023-01-24T20:43:40.994Z,104222.84
2023-01-24T20:46:20.693Z,104189.16
2023-01-24T20:48:49.537Z,104209.88
2023-01-24T20:51:17.305Z,104172.66
2023-01-24T21:28:12.339Z,104191.91
2023-01-24T21:30:39.136Z,104186.56
2023-01-24T21:33:08.019Z,104183.44
2023-01-24T21:35:34.812Z,104190.63
2023-01-24T21:38:01.329Z,104178.38
2023-01-24T21:40:27.897Z,104177.34
2023-01-24T21:42:55.634Z,104182.53
2023-01-24T21:45:22.493Z,104186.97
2023-01-24T21:47:49.148Z,104170.13
2023-01-24T21:50:16.144Z,104177.03
2023-01-24T21:52:44.537Z,104169.88
2023-01-24T21:55:12.484Z,104176.03
2023-01-24T21:57:58.200Z,104181.59
2023-01-24T22:00:24.927Z,104174.66
2023-01-24T22:03:11.591Z,104170.38
2023-01-24T22:05:38.254Z,104169.59
2023-01-24T22:08:05.255Z,104174.06
2023-01-24T22:10:31.910Z,104182.66
2023-01-24T22:12:58.718Z,104170.50
2023-01-24T22:15:25.999Z,104167.75
2023-01-24T22:17:53.083Z,104162.53
2023-01-24T22:20:19.790Z,104165.31
2023-01-24T22:22:56.656Z,104170.59
2023-01-24T22:25:49.959Z,104171.50
2023-01-24T22:28:19.415Z,104175.00
2023-01-24T22:30:47.145Z,104167.06
2023-01-24T22:33:13.961Z,104165.22
2023-01-24T22:35:41.395Z,104169.44
2023-01-24T22:38:07.934Z,104165.88
2023-01-24T22:40:34.760Z,104160.66
2023-01-24T22:43:01.329Z,104175.38
2023-01-24T22:45:29.466Z,104167.28
2023-01-24T22:47:56.682Z,104172.53
2023-01-24T22:50:23.277Z,104155.78
2023-01-24T22:52:50.223Z,104159.31
2023-01-24T22:55:17.828Z,104159.19
2023-01-24T22:57:44.264Z,104156.53
2023-01-24T23:00:12.520Z,104169.91
2023-01-24T23:02:39.455Z,104156.88
2023-01-24T23:05:06.853Z,104151.44
2023-01-24T23:07:33.951Z,104156.75
2023-01-24T23:10:00.489Z,104142.00
2023-01-24T23:12:45.651Z,104133.53
2023-01-24T23:15:31.702Z,104129.06
2023-01-24T23:17:58.201Z,104137.03
2023-01-24T23:20:43.446Z,104130.88
2023-01-24T23:23:09.928Z,104135.91
2023-01-24T23:25:36.519Z,104124.34
2023-01-24T23:28:03.167Z,104118.06
2023-01-24T23:30:49.929Z,104135.75
2023-01-24T23:33:40.554Z,104123.66
2023-01-24T23:36:09.423Z,104120.28
2023-01-24T23:38:35.930Z,104110.59
2023-01-24T23:41:07.074Z,104111.56
2023-01-24T23:43:33.598Z,104109.66
2023-01-24T23:46:00.508Z,104112.84
2023-01-24T23:48:27.334Z,104114.63
2023-01-24T23:50:58.777Z,104115.63
2023-01-24T23:53:25.897Z,104107.03
2023-01-24T23:55:52.449Z,104109.75
2023-01-24T23:58:18.892Z,104109.91
